Time;durP1;ratioP1;P1;durP2;ratioP2;P2;SDS_P1;SDS_P2;PMS_P1;PMS_P2;Temp;Humidity;BMP_temperature;BMP_pressure;BME280_temperature;BME280_humidity;BME280_pressure;Samples;Min_cycle;Max_cycle;Signal;HPM_P1;HPM_P2
2023/07/15 00:01:02;;;;;;;8.38;4.80;;;19.10;99.90;;;;;;5106497;28;20077;-63
2023/07/15 00:03:28;;;;;;;12.18;5.10;;;19.10;99.90;;;;;;5106947;28;20449;-64
2023/07/15 00:05:54;;;;;;;11.68;4.85;;;19.10;99.90;;;;;;5126095;28;20149;-62
2023/07/15 00:08:20;;;;;;;9.82;4.80;;;19.00;99.90;;;;;;5126087;28;20032;-63
2023/07/15 00:10:46;;;;;;;10.02;5.22;;;19.10;99.90;;;;;;5105604;28;20765;-63
2023/07/15 00:13:18;;;;;;;11.90;5.13;;;19.00;99.90;;;;;;5126200;28;20070;-62
2023/07/15 00:15:47;;;;;;;8.82;5.10;;;19.10;99.90;;;;;;5084254;28;20093;-63
2023/07/15 00:18:14;;;;;;;10.55;5.28;;;19.00;99.90;;;;;;5087300;28;20071;-61
2023/07/15 00:20:41;;;;;;;10.82;5.10;;;19.00;99.90;;;;;;5122424;28;20031;-63
2023/07/15 00:23:21;;;;;;;10.98;5.57;;;19.00;99.90;;;;;;5107719;28;20743;-63
2023/07/15 00:25:47;;;;;;;12.32;5.32;;;18.90;99.90;;;;;;5104887;28;20039;-64
2023/07/15 00:28:13;;;;;;;9.90;5.32;;;18.90;99.90;;;;;;5125937;28;20118;-66
2023/07/15 00:30:39;;;;;;;9.30;5.35;;;18.90;99.90;;;;;;5105775;28;20471;-65
2023/07/15 00:33:08;;;;;;;10.93;5.18;;;18.80;99.90;;;;;;5108065;28;20107;-65
2023/07/15 00:35:34;;;;;;;9.95;5.30;;;18.80;99.90;;;;;;5106192;28;20412;-65
2023/07/15 00:38:00;;;;;;;11.52;5.70;;;18.70;99.90;;;;;;5126214;28;20027;-64
2023/07/15 00:40:37;;;;;;;11.88;5.13;;;18.60;99.90;;;;;;5089746;28;20544;-64
2023/07/15 00:43:40;;;;;;;12.75;5.63;;;18.60;99.90;;;;;;5125635;28;20049;-62
2023/07/15 00:46:26;;;;;;;9.43;5.55;;;18.50;99.90;;;;;;5126765;28;20051;-63
2023/07/15 00:49:05;;;;;;;10.70;5.68;;;18.50;99.90;;;;;;5118937;28;20186;-63
2023/07/15 00:51:35;;;;;;;10.98;5.20;;;18.40;99.90;;;;;;5106873;28;20043;-62
2023/07/15 00:54:03;;;;;;;10.35;5.68;;;18.30;99.90;;;;;;5106120;28;20099;-64
2023/07/15 00:56:30;;;;;;;9.93;5.47;;;18.30;99.90;;;;;;5086126;28;20122;-64
2023/07/15 00:58:56;;;;;;;10.23;5.22;;;18.30;99.90;;;;;;5086893;28;20035;-63
2023/07/15 01:01:22;;;;;;;10.02;4.97;;;18.20;99.90;;;;;;5087021;28;20138;-62
2023/07/15 01:03:48;;;;;;;12.73;5.63;;;18.20;99.90;;;;;;5094430;27;20122;-62
2023/07/15 01:06:14;;;;;;;10.23;5.53;;;18.20;99.90;;;;;;5129316;27;20079;-64
2023/07/15 01:08:40;;;;;;;10.63;5.57;;;18.20;99.90;;;;;;5110250;27;20680;-63
2023/07/15 01:11:06;;;;;;;11.95;4.57;;;18.20;99.90;;;;;;5108261;27;20114;-64
2023/07/15 01:13:32;;;;;;;9.05;4.85;;;18.20;99.90;;;;;;5109645;27;20078;-65
2023/07/15 01:15:58;;;;;;;10.10;5.03;;;18.30;99.90;;;;;;5109871;27;20054;-64
2023/07/15 01:18:23;;;;;;;9.88;5.15;;;18.20;99.90;;;;;;5092495;27;20053;-62
2023/07/15 01:20:50;;;;;;;11.20;5.00;;;18.30;99.90;;;;;;5108499;27;20417;-63
2023/07/15 01:23:16;;;;;;;9.00;4.65;;;18.30;99.90;;;;;;5093929;27;20187;-64
2023/07/15 01:25:42;;;;;;;8.70;4.28;;;18.40;99.90;;;;;;5109282;27;20114;-62
2023/07/15 01:28:08;;;;;;;11.65;5.50;;;18.40;99.90;;;;;;5111204;27;20120;-66
2023/07/15 01:30:33;;;;;;;9.50;4.38;;;18.40;99.90;;;;;;5094226;27;20043;-65
2023/07/15 01:32:59;;;;;;;11.55;4.63;;;18.40;99.90;;;;;;5130728;27;20076;-62
2023/07/15 01:35:24;;;;;;;12.38;4.85;;;18.40;99.90;;;;;;5128793;27;20038;-65
2023/07/15 01:37:50;;;;;;;7.97;3.70;;;18.50;99.90;;;;;;5111321;27;20447;-64
2023/07/15 01:40:16;;;;;;;8.45;4.05;;;18.50;99.90;;;;;;5109931;27;20520;-63
2023/07/15 01:42:42;;;;;;;9.55;4.53;;;18.50;99.90;;;;;;5110574;27;20513;-65
2023/07/15 01:45:09;;;;;;;9.55;4.40;;;18.60;99.90;;;;;;5130072;27;20043;-63
2023/07/15 01:47:38;;;;;;;8.52;3.75;;;18.60;99.90;;;;;;5112431;27;20309;-63
2023/07/15 01:50:07;;;;;;;9.82;4.30;;;18.60;99.90;;;;;;5123406;27;20084;-65
2023/07/15 01:52:32;;;;;;;8.82;4.03;;;18.70;99.90;;;;;;5112065;27;20080;-63
2023/07/15 01:54:58;;;;;;;7.78;3.58;;;18.70;99.90;;;;;;5110797;27;20034;-62
2023/07/15 01:57:26;;;;;;;6.90;3.70;;;18.70;99.90;;;;;;5109788;27;20569;-69
2023/07/15 01:59:57;;;;;;;8.15;3.70;;;18.70;99.90;;;;;;5110417;27;20113;-63
2023/07/15 02:02:24;;;;;;;9.75;4.05;;;18.70;99.90;;;;;;5108408;27;20426;-64
2023/07/15 02:04:50;;;;;;;10.90;4.00;;;18.80;99.90;;;;;;5127066;27;20080;-64
2023/07/15 02:07:16;;;;;;;8.20;4.07;;;18.80;99.90;;;;;;5109658;27;20511;-65
2023/07/15 02:09:41;;;;;;;6.30;3.30;;;18.90;99.90;;;;;;5124743;27;20057;-63
2023/07/15 02:12:07;;;;;;;9.43;3.60;;;18.90;99.90;;;;;;5092009;27;20241;-65
2023/07/15 02:14:36;;;;;;;7.88;3.30;;;18.90;99.90;;;;;;5128368;27;20039;-64
2023/07/15 02:17:03;;;;;;;8.07;3.58;;;18.90;99.90;;;;;;5102629;28;20467;-66
2023/07/15 02:19:30;;;;;;;8.82;3.78;;;19.00;99.90;;;;;;5097215;27;20077;-64
2023/07/15 02:21:57;;;;;;;8.60;3.60;;;19.00;99.90;;;;;;5110141;27;20464;-65
2023/07/15 02:24:23;;;;;;;9.48;3.50;;;19.00;99.90;;;;;;5076518;27;20045;-64
2023/07/15 02:26:48;;;;;;;8.88;3.50;;;19.00;99.90;;;;;;5109412;27;20431;-63
2023/07/15 02:29:14;;;;;;;9.02;3.88;;;19.00;99.90;;;;;;5110360;27;20095;-64
2023/07/15 02:31:41;;;;;;;9.27;3.70;;;19.00;99.90;;;;;;5108733;27;20035;-64
2023/07/15 02:34:07;;;;;;;9.05;3.22;;;19.00;99.90;;;;;;5101967;28;20077;-64
2023/07/15 02:36:33;;;;;;;8.45;3.35;;;19.00;99.90;;;;;;5090235;28;20079;-64
2023/07/15 02:38:59;;;;;;;5.82;3.15;;;19.00;99.90;;;;;;5089670;28;20146;-65
2023/07/15 02:41:25;;;;;;;7.70;3.90;;;19.00;99.90;;;;;;5109852;27;20123;-64
2023/07/15 02:43:51;;;;;;;8.18;3.40;;;19.00;99.90;;;;;;5110384;27;20035;-63
2023/07/15 02:46:17;;;;;;;9.85;3.60;;;19.00;99.90;;;;;;5109158;27;20092;-64
2023/07/15 02:48:43;;;;;;;8.70;3.30;;;19.00;99.90;;;;;;5108000;27;20402;-64
2023/07/15 02:51:08;;;;;;;7.93;3.35;;;18.90;99.90;;;;;;5128034;27;20031;-63
2023/07/15 02:53:34;;;;;;;9.23;3.28;;;18.90;99.90;;;;;;5107861;27;20061;-66
2023/07/15 02:56:00;;;;;;;8.38;3.13;;;18.80;99.90;;;;;;5107798;27;20386;-62
2023/07/15 02:58:26;;;;;;;10.18;3.67;;;18.80;99.90;;;;;;5109588;27;20089;-63
2023/07/15 03:00:52;;;;;;;7.38;3.40;;;18.80;99.90;;;;;;5108315;27;20159;-64
2023/07/15 03:03:18;;;;;;;7.38;3.58;;;18.80;99.90;;;;;;5127655;27;20398;-63
2023/07/15 03:05:48;;;;;;;8.48;3.30;;;18.80;99.90;;;;;;5108390;27;20478;-66
2023/07/15 03:08:14;;;;;;;6.78;3.22;;;18.80;99.90;;;;;;5128232;27;20478;-64
2023/07/15 03:10:43;;;;;;;9.57;3.47;;;18.80;99.90;;;;;;5106958;27;20034;-63
2023/07/15 03:13:08;;;;;;;11.13;3.63;;;18.80;99.90;;;;;;5108163;27;20114;-64
2023/07/15 03:15:35;;;;;;;9.00;3.63;;;18.80;99.90;;;;;;5097082;28;20126;-63
2023/07/15 03:18:02;;;;;;;8.80;3.40;;;18.70;99.90;;;;;;5090869;27;20039;-63
2023/07/15 03:20:28;;;;;;;7.90;3.30;;;18.70;99.90;;;;;;5107298;27;20088;-63
2023/07/15 03:22:54;;;;;;;9.63;3.55;;;18.70;99.90;;;;;;5107805;27;20050;-63
2023/07/15 03:25:20;;;;;;;6.50;3.58;;;18.60;99.90;;;;;;5106553;27;20039;-62
2023/07/15 03:27:47;;;;;;;8.20;2.83;;;18.60;99.90;;;;;;5125792;27;20746;-63
2023/07/15 03:30:13;;;;;;;9.65;3.15;;;18.50;99.90;;;;;;5125690;27;20031;-62
2023/07/15 03:32:40;;;;;;;7.38;2.92;;;18.50;99.90;;;;;;5107747;27;20490;-64
2023/07/15 03:35:10;;;;;;;9.05;3.17;;;18.50;99.90;;;;;;5089546;27;20066;-65
2023/07/15 03:37:37;;;;;;;6.75;2.88;;;18.50;99.90;;;;;;5108371;27;20069;-63
2023/07/15 03:40:07;;;;;;;8.55;2.92;;;18.60;99.90;;;;;;5125174;27;20043;-64
2023/07/15 03:42:34;;;;;;;9.50;3.63;;;18.60;99.90;;;;;;5090626;27;20405;-64
2023/07/15 03:45:00;;;;;;;9.32;2.95;;;18.70;99.90;;;;;;5090755;27;20042;-64
2023/07/15 03:47:26;;;;;;;9.32;3.08;;;18.70;99.90;;;;;;5124320;27;20118;-63
2023/07/15 03:49:52;;;;;;;7.35;2.60;;;18.80;99.90;;;;;;5080451;27;20118;-63
2023/07/15 03:52:17;;;;;;;7.30;2.92;;;18.90;99.90;;;;;;5125349;27;20188;-63
2023/07/15 03:54:43;;;;;;;7.93;2.95;;;18.90;99.90;;;;;;5106220;27;20038;-63
2023/07/15 03:57:09;;;;;;;8.75;2.90;;;18.90;99.90;;;;;;5106375;28;20520;-63
2023/07/15 03:59:35;;;;;;;7.88;2.70;;;19.00;99.90;;;;;;5107481;28;20104;-63
2023/07/15 04:02:02;;;;;;;9.35;2.92;;;19.10;99.90;;;;;;5102465;28;20059;-65
2023/07/15 04:04:27;;;;;;;8.07;3.28;;;19.10;99.90;;;;;;5103477;28;20097;-65
2023/07/15 04:06:54;;;;;;;11.55;2.90;;;19.10;99.90;;;;;;5086331;28;20081;-62
2023/07/15 04:09:23;;;;;;;8.30;2.88;;;19.20;99.90;;;;;;5103120;28;20046;-63
2023/07/15 04:11:50;;;;;;;10.63;2.90;;;19.30;99.90;;;;;;5102220;28;20504;-63
2023/07/15 04:14:16;;;;;;;8.60;2.88;;;19.40;99.90;;;;;;5102786;28;20134;-63
2023/07/15 04:16:42;;;;;;;8.82;2.92;;;19.60;99.90;;;;;;5105464;28;20470;-62
2023/07/15 04:19:08;;;;;;;8.70;3.00;;;19.70;99.90;;;;;;5085508;28;20058;-63
2023/07/15 04:21:34;;;;;;;6.22;2.75;;;19.90;99.90;;;;;;5102616;28;20036;-65
2023/07/15 04:24:00;;;;;;;7.78;2.83;;;20.10;99.90;;;;;;5103115;28;20521;-63
2023/07/15 04:26:26;;;;;;;7.10;2.85;;;20.30;99.90;;;;;;5101261;28;20646;-64
2023/07/15 04:28:54;;;;;;;10.82;3.35;;;20.50;99.90;;;;;;5103333;28;20058;-63
2023/07/15 04:31:20;;;;;;;6.85;2.90;;;20.70;99.90;;;;;;5103689;28;20506;-63
2023/07/15 04:33:51;;;;;;;8.88;2.85;;;20.80;99.90;;;;;;5100861;28;20149;-65
2023/07/15 04:36:21;;;;;;;7.05;2.70;;;21.00;99.90;;;;;;5086186;28;20058;-63
2023/07/15 04:38:47;;;;;;;7.47;2.88;;;21.20;99.90;;;;;;5103856;28;20673;-65
2023/07/15 04:41:13;;;;;;;8.00;3.03;;;21.40;99.90;;;;;;5088250;28;20036;-63
2023/07/15 04:43:39;;;;;;;6.25;2.75;;;21.60;99.90;;;;;;5098046;28;20372;-65
2023/07/15 04:46:05;;;;;;;6.13;2.80;;;21.70;99.90;;;;;;5070243;28;20043;-64
2023/07/15 04:48:31;;;;;;;6.80;2.65;;;21.90;99.80;;;;;;5086593;28;20043;-61
2023/07/15 04:50:56;;;;;;;9.38;2.67;;;22.00;99.50;;;;;;5107810;28;20382;-63
2023/07/15 04:53:22;;;;;;;8.57;2.78;;;22.20;99.30;;;;;;5107828;28;20210;-62
2023/07/15 04:55:48;;;;;;;6.88;2.65;;;22.40;99.00;;;;;;5107151;28;20035;-65
2023/07/15 04:58:19;;;;;;;7.32;2.70;;;22.50;98.70;;;;;;5108369;28;20131;-63
2023/07/15 05:00:51;;;;;;;9.07;2.78;;;22.70;98.60;;;;;;5091242;27;20043;-64
2023/07/15 05:03:17;;;;;;;8.27;2.58;;;22.90;98.30;;;;;;5111141;27;20382;-64
2023/07/15 05:05:44;;;;;;;7.95;2.83;;;23.00;98.10;;;;;;5126053;27;20454;-66
2023/07/15 05:08:15;;;;;;;8.55;2.70;;;23.50;97.80;;;;;;5109709;27;20472;-63
2023/07/15 05:10:41;;;;;;;6.40;2.45;;;23.60;97.40;;;;;;5127116;27;20049;-65
2023/07/15 05:13:07;;;;;;;7.35;2.70;;;23.10;97.50;;;;;;5127853;27;20714;-64
2023/07/15 05:15:35;;;;;;;6.55;2.80;;;22.80;97.70;;;;;;5128299;27;20054;-64
2023/07/15 05:18:01;;;;;;;6.50;2.75;;;23.00;97.70;;;;;;5128273;27;20035;-62
2023/07/15 05:20:26;;;;;;;6.90;2.58;;;23.40;97.40;;;;;;5126997;27;20054;-63
2023/07/15 05:22:52;;;;;;;8.00;2.88;;;24.10;97.10;;;;;;5128500;27;20043;-63
2023/07/15 05:25:19;;;;;;;7.18;2.35;;;24.30;96.70;;;;;;5107322;27;20258;-64
2023/07/15 05:27:44;;;;;;;7.25;2.80;;;24.20;96.50;;;;;;5109173;27;20035;-64
2023/07/15 05:30:10;;;;;;;7.25;2.78;;;24.10;96.60;;;;;;5109473;27;20046;-64
2023/07/15 05:32:37;;;;;;;8.43;2.92;;;24.00;96.50;;;;;;5119003;27;20176;-64
2023/07/15 05:35:03;;;;;;;8.07;2.60;;;24.10;96.60;;;;;;5100250;27;20046;-65
2023/07/15 05:37:29;;;;;;;7.85;3.55;;;24.00;96.50;;;;;;5127975;27;20443;-63
2023/07/15 05:39:55;;;;;;;7.63;2.90;;;24.00;96.30;;;;;;5107081;27;20039;-63
2023/07/15 05:42:21;;;;;;;8.70;2.88;;;24.00;96.30;;;;;;5108299;27;20334;-63
2023/07/15 05:44:46;;;;;;;7.57;2.60;;;23.90;96.30;;;;;;5109711;27;20047;-63
2023/07/15 05:47:12;;;;;;;6.57;2.72;;;23.90;96.40;;;;;;5128108;27;20043;-64
2023/07/15 05:49:38;;;;;;;12.73;3.40;;;23.90;96.40;;;;;;5125784;27;20159;-65
2023/07/15 05:52:03;;;;;;;9.65;2.95;;;23.90;96.30;;;;;;5108901;27;20054;-65
2023/07/15 05:54:29;;;;;;;8.35;2.85;;;23.80;96.00;;;;;;5107158;27;20135;-66
2023/07/15 05:56:58;;;;;;;8.15;2.70;;;23.80;96.20;;;;;;5127204;27;20042;-65
2023/07/15 05:59:23;;;;;;;7.55;2.67;;;23.80;96.20;;;;;;5108540;27;20047;-66
2023/07/15 06:01:49;;;;;;;7.50;2.42;;;23.80;96.30;;;;;;5108558;27;20097;-64
2023/07/15 06:04:15;;;;;;;8.68;2.78;;;23.80;96.40;;;;;;5086714;28;20040;-64
2023/07/15 06:06:41;;;;;;;8.95;2.83;;;23.90;96.40;;;;;;5106742;28;20035;-64
2023/07/15 06:09:06;;;;;;;7.80;2.60;;;23.90;96.30;;;;;;5088457;27;20074;-65
2023/07/15 06:11:32;;;;;;;9.88;2.63;;;24.00;96.30;;;;;;5107688;27;20131;-64
2023/07/15 06:14:00;;;;;;;9.98;2.80;;;24.00;96.30;;;;;;5107859;27;20066;-65
2023/07/15 06:16:26;;;;;;;8.75;2.70;;;24.00;96.30;;;;;;5127376;27;20043;-66
2023/07/15 06:18:52;;;;;;;8.25;2.97;;;24.00;96.40;;;;;;5126174;27;20256;-63
2023/07/15 06:21:18;;;;;;;10.80;2.83;;;23.90;96.30;;;;;;5108217;27;20129;-65
2023/07/15 06:23:43;;;;;;;10.13;2.78;;;23.90;96.50;;;;;;5125830;27;20497;-63
2023/07/15 06:26:09;;;;;;;7.82;2.60;;;23.90;96.70;;;;;;5107139;27;20486;-63
2023/07/15 06:28:35;;;;;;;7.13;2.70;;;23.80;96.90;;;;;;5126960;27;20090;-62
2023/07/15 06:31:06;;;;;;;10.18;2.97;;;23.90;96.90;;;;;;5106958;27;20562;-64
2023/07/15 06:33:35;;;;;;;9.88;2.70;;;23.80;97.20;;;;;;5126661;27;20045;-62
2023/07/15 06:36:02;;;;;;;9.98;2.85;;;23.80;97.40;;;;;;5107925;27;20095;-64
2023/07/15 06:38:28;;;;;;;8.00;2.70;;;23.60;97.50;;;;;;5108501;27;20039;-65
2023/07/15 06:40:54;;;;;;;8.70;2.42;;;23.50;97.60;;;;;;5105721;27;20035;-63
2023/07/15 06:43:20;;;;;;;8.43;3.03;;;23.40;97.80;;;;;;5090331;27;20046;-63
2023/07/15 06:45:45;;;;;;;6.90;3.00;;;23.40;98.20;;;;;;5091782;27;20043;-64
2023/07/15 06:48:12;;;;;;;8.32;2.60;;;23.30;98.10;;;;;;5108129;27;20047;-63
2023/07/15 06:50:38;;;;;;;9.00;2.42;;;23.30;98.40;;;;;;5124708;27;20180;-63
2023/07/15 06:53:04;;;;;;;8.70;2.50;;;23.30;98.60;;;;;;5123557;27;20526;-66
2023/07/15 06:55:29;;;;;;;7.68;2.50;;;23.30;98.90;;;;;;5106293;27;20039;-64
2023/07/15 06:57:55;;;;;;;6.47;2.70;;;23.30;98.70;;;;;;5125960;27;20062;-64
2023/07/15 07:00:24;;;;;;;7.72;2.50;;;23.30;98.80;;;;;;5117113;27;20040;-65
2023/07/15 07:02:50;;;;;;;6.60;2.60;;;23.30;98.80;;;;;;5097828;27;20385;-63
2023/07/15 07:05:16;;;;;;;6.40;2.60;;;23.30;99.00;;;;;;5114820;27;20040;-65
2023/07/15 07:07:42;;;;;;;6.50;2.47;;;23.20;99.20;;;;;;5090114;27;20378;-68
2023/07/15 07:10:08;;;;;;;6.07;2.40;;;23.30;99.40;;;;;;5096323;27;20445;-65
2023/07/15 07:12:34;;;;;;;8.48;2.60;;;23.40;99.30;;;;;;5100701;27;20035;-65
2023/07/15 07:14:59;;;;;;;7.43;2.45;;;23.50;99.30;;;;;;5114959;27;20042;-63
2023/07/15 07:17:25;;;;;;;6.63;2.28;;;23.70;99.60;;;;;;5115679;27;20317;-63
2023/07/15 07:19:50;;;;;;;5.72;2.67;;;23.70;99.30;;;;;;5078702;27;20226;-65
2023/07/15 07:22:16;;;;;;;9.00;2.33;;;23.70;99.30;;;;;;5114775;27;20493;-66
2023/07/15 07:24:49;;;;;;;6.55;2.30;;;23.80;99.30;;;;;;5082526;27;20331;-63
2023/07/15 07:27:15;;;;;;;9.20;2.22;;;23.90;99.20;;;;;;5102851;27;20050;-66
2023/07/15 07:29:40;;;;;;;6.28;2.10;;;23.90;99.20;;;;;;5124115;27;20218;-64
2023/07/15 07:32:06;;;;;;;8.73;2.72;;;23.90;99.10;;;;;;5099448;28;20035;-64
2023/07/15 07:34:33;;;;;;;7.22;2.28;;;23.90;99.10;;;;;;5093005;27;20051;-67
2023/07/15 07:36:59;;;;;;;8.57;2.72;;;24.00;99.30;;;;;;5106973;27;20133;-65
2023/07/15 07:39:24;;;;;;;7.47;2.55;;;24.00;99.00;;;;;;5105891;27;20129;-66
2023/07/15 07:41:51;;;;;;;5.80;2.45;;;24.00;99.00;;;;;;5105944;27;20046;-67
2023/07/15 07:44:16;;;;;;;6.07;2.38;;;24.10;98.90;;;;;;5089766;27;20565;-67
2023/07/15 07:46:42;;;;;;;8.98;2.30;;;24.10;98.70;;;;;;5115353;27;20079;-63
2023/07/15 07:49:07;;;;;;;8.73;2.65;;;24.00;98.70;;;;;;5120253;27;20077;-67
2023/07/15 07:51:33;;;;;;;7.68;2.40;;;24.00;98.80;;;;;;5125352;27;20031;-68
2023/07/15 07:53:59;;;;;;;7.53;2.20;;;23.90;98.80;;;;;;5107146;28;20070;-64
2023/07/15 07:56:25;;;;;;;6.38;2.35;;;23.90;98.80;;;;;;5123984;27;20081;-64
2023/07/15 07:58:54;;;;;;;7.85;2.45;;;24.00;98.80;;;;;;5125155;27;20477;-67
2023/07/15 08:01:21;;;;;;;5.85;2.30;;;24.10;98.90;;;;;;5088752;28;20051;-64
2023/07/15 08:03:47;;;;;;;6.20;2.35;;;24.20;99.20;;;;;;5105737;28;20146;-64
2023/07/15 08:06:13;;;;;;;7.32;2.78;;;24.20;99.20;;;;;;5086414;28;20126;-65
2023/07/15 08:08:38;;;;;;;6.85;2.30;;;24.30;99.10;;;;;;5086092;28;20432;-65
2023/07/15 08:11:04;;;;;;;7.40;2.38;;;24.40;98.90;;;;;;5100899;28;20043;-62
2023/07/15 08:13:30;;;;;;;6.97;2.78;;;24.40;98.80;;;;;;5119526;27;20071;-63
2023/07/15 08:15:55;;;;;;;6.82;2.40;;;24.50;98.60;;;;;;5123601;27;20031;-64
2023/07/15 08:18:21;;;;;;;5.32;2.25;;;24.50;98.80;;;;;;5103423;27;20101;-67
2023/07/15 08:20:47;;;;;;;6.25;2.30;;;24.50;98.60;;;;;;5108902;27;20039;-67
2023/07/15 08:23:13;;;;;;;4.93;2.13;;;24.40;98.50;;;;;;5110668;27;20039;-64
2023/07/15 08:25:38;;;;;;;6.53;2.22;;;24.30;98.70;;;;;;5124624;27;20059;-64
2023/07/15 08:28:04;;;;;;;6.45;2.30;;;24.40;98.70;;;;;;5072513;27;20671;-64
2023/07/15 08:30:30;;;;;;;8.38;2.30;;;24.50;98.50;;;;;;5095347;28;20041;-66
2023/07/15 08:32:56;;;;;;;4.53;2.00;;;24.60;98.40;;;;;;5092230;28;20096;-70
2023/07/15 08:35:21;;;;;;;6.47;2.22;;;24.60;98.30;;;;;;5121188;27;20070;-68
2023/07/15 08:37:47;;;;;;;4.43;1.85;;;24.60;98.30;;;;;;5110704;27;20458;-65
2023/07/15 08:40:13;;;;;;;7.07;1.95;;;24.50;98.30;;;;;;5108634;27;20699;-65
2023/07/15 08:42:39;;;;;;;6.45;2.30;;;24.50;98.50;;;;;;5126732;27;20054;-64
2023/07/15 08:45:06;;;;;;;5.22;1.90;;;24.50;98.80;;;;;;5110579;27;20512;-64
2023/07/15 08:47:31;;;;;;;7.47;2.30;;;24.60;99.10;;;;;;5128411;27;20450;-69
2023/07/15 08:50:02;;;;;;;6.57;2.10;;;24.70;98.90;;;;;;5092207;27;20126;-68
2023/07/15 08:52:30;;;;;;;5.45;1.88;;;24.70;99.10;;;;;;5110368;27;20088;-67
2023/07/15 08:54:55;;;;;;;5.57;2.00;;;24.80;99.30;;;;;;5109016;27;20043;-64
2023/07/15 08:57:22;;;;;;;5.53;1.90;;;24.90;99.10;;;;;;5092289;27;20406;-65
2023/07/15 08:59:49;;;;;;;5.85;1.80;;;25.00;99.00;;;;;;5108821;27;20326;-67
2023/07/15 09:02:15;;;;;;;6.43;2.10;;;25.00;99.00;;;;;;5109823;27;20051;-67
2023/07/15 09:04:41;;;;;;;5.47;1.88;;;25.10;99.20;;;;;;5109212;27;20563;-64
2023/07/15 09:07:07;;;;;;;6.55;2.40;;;25.10;99.20;;;;;;5128773;27;20039;-63
2023/07/15 09:09:38;;;;;;;5.55;1.90;;;25.10;99.10;;;;;;5123991;27;20110;-65
2023/07/15 09:12:06;;;;;;;6.05;2.22;;;25.20;99.10;;;;;;5088411;28;20448;-65
2023/07/15 09:14:44;;;;;;;7.70;2.60;;;25.20;99.00;;;;;;5122273;27;20418;-65
2023/07/15 09:17:16;;;;;;;6.25;2.45;;;25.20;98.80;;;;;;5127836;27;20468;-65
2023/07/15 09:19:43;;;;;;;5.55;2.30;;;25.10;98.70;;;;;;5107846;27;20043;-68
2023/07/15 09:22:09;;;;;;;7.00;2.42;;;25.10;98.90;;;;;;5109184;27;20046;-67
2023/07/15 09:24:39;;;;;;;5.28;2.17;;;25.10;98.90;;;;;;5107892;27;20035;-65
2023/07/15 09:27:06;;;;;;;5.85;2.17;;;25.10;98.80;;;;;;5108346;27;20051;-64
2023/07/15 09:29:32;;;;;;;7.03;2.78;;;25.10;99.00;;;;;;5109355;27;20054;-65
2023/07/15 09:31:58;;;;;;;6.38;2.38;;;25.10;99.00;;;;;;5108318;27;20047;-67
2023/07/15 09:34:24;;;;;;;5.38;2.20;;;25.10;98.90;;;;;;5108302;27;20425;-65
2023/07/15 09:36:50;;;;;;;6.60;2.72;;;25.10;99.30;;;;;;5109495;27;20043;-66
2023/07/15 09:39:19;;;;;;;7.43;2.25;;;25.20;99.20;;;;;;5108228;27;20644;-65
2023/07/15 09:41:58;;;;;;;8.82;2.50;;;25.40;98.90;;;;;;5108750;27;20043;-65
2023/07/15 09:44:35;;;;;;;7.95;2.60;;;25.50;99.00;;;;;;5128233;27;20074;-66
2023/07/15 09:47:03;;;;;;;5.60;2.20;;;25.50;98.70;;;;;;5127676;27;20047;-63
2023/07/15 09:49:29;;;;;;;6.07;2.38;;;25.40;98.70;;;;;;5107897;27;20035;-65
2023/07/15 09:51:55;;;;;;;6.97;2.50;;;25.50;98.80;;;;;;5109308;27;20202;-70
2023/07/15 09:54:23;;;;;;;7.90;2.38;;;25.60;98.70;;;;;;5125612;27;20042;-66
2023/07/15 09:56:51;;;;;;;7.40;2.50;;;25.50;98.70;;;;;;5107819;27;20136;-65
2023/07/15 09:59:26;;;;;;;6.18;2.45;;;25.50;98.70;;;;;;5109215;27;20162;-64
2023/07/15 10:02:04;;;;;;;9.10;2.70;;;25.40;98.70;;;;;;5108649;27;20082;-65
2023/07/15 10:04:33;;;;;;;6.32;2.10;;;25.30;98.80;;;;;;5106106;27;20450;-66
2023/07/15 10:07:06;;;;;;;4.75;2.03;;;25.40;98.90;;;;;;5092161;27;20333;-64
2023/07/15 10:09:32;;;;;;;4.90;2.10;;;25.40;98.80;;;;;;5125725;27;20035;-66
2023/07/15 10:12:02;;;;;;;5.53;2.38;;;25.50;98.90;;;;;;5090633;27;20071;-65
2023/07/15 10:14:30;;;;;;;5.20;2.05;;;25.60;98.80;;;;;;5108582;27;20046;-65
2023/07/15 10:17:14;;;;;;;5.55;2.33;;;25.70;98.70;;;;;;5107463;27;20714;-66
2023/07/15 10:20:01;;;;;;;5.90;2.30;;;25.90;99.00;;;;;;5125742;27;20039;-69
2023/07/15 10:22:33;;;;;;;4.88;1.90;;;26.00;98.50;;;;;;5108693;27;20138;-66
2023/07/15 10:25:01;;;;;;;5.70;2.00;;;26.00;98.60;;;;;;5105877;27;20114;-65
2023/07/15 10:27:28;;;;;;;7.85;2.10;;;26.20;98.80;;;;;;5124117;27;20125;-65
2023/07/15 10:30:23;;;;;;;4.38;1.90;;;26.30;98.50;;;;;;5126959;27;20079;-66
2023/07/15 10:33:00;;;;;;;6.45;2.17;;;26.40;98.50;;;;;;5126886;27;20031;-66
2023/07/15 10:35:45;;;;;;;6.97;1.90;;;26.60;98.50;;;;;;5124774;27;20082;-66
2023/07/15 10:38:28;;;;;;;6.55;2.00;;;26.70;98.10;;;;;;5126203;27;20501;-65
2023/07/15 10:41:00;;;;;;;7.47;2.33;;;26.80;98.70;;;;;;5104873;27;20058;-65
2023/07/15 10:43:34;;;;;;;4.95;1.77;;;26.90;98.50;;;;;;5107614;27;20039;-65
2023/07/15 10:46:16;;;;;;;6.28;2.03;;;26.90;98.10;;;;;;5107070;27;20084;-66
2023/07/15 10:48:43;;;;;;;7.35;1.80;;;27.00;97.90;;;;;;5126325;27;20284;-66
2023/07/15 10:51:10;;;;;;;6.50;1.83;;;27.00;97.40;;;;;;5106338;27;20164;-66
2023/07/15 10:53:36;;;;;;;7.45;2.22;;;27.00;96.90;;;;;;5125169;27;20047;-66
2023/07/15 10:56:09;;;;;;;4.70;1.70;;;27.10;97.40;;;;;;5124979;27;20061;-64
2023/07/15 10:58:40;;;;;;;5.65;1.70;;;27.10;97.20;;;;;;5106490;27;20041;-65
2023/07/15 11:01:11;;;;;;;5.97;2.00;;;27.00;97.00;;;;;;5107091;27;20059;-66
2023/07/15 11:03:43;;;;;;;8.60;2.20;;;26.90;97.10;;;;;;5107243;27;20142;-65
2023/07/15 11:06:09;;;;;;;7.05;1.85;;;26.80;97.20;;;;;;5106575;27;20050;-65
2023/07/15 11:08:36;;;;;;;5.78;1.83;;;26.70;97.40;;;;;;5124115;27;20050;-66
2023/07/15 11:11:04;;;;;;;4.82;1.75;;;26.60;97.50;;;;;;5089692;27;20038;-66
2023/07/15 11:13:30;;;;;;;6.82;1.85;;;26.60;97.70;;;;;;5119899;27;20264;-66
2023/07/15 11:15:56;;;;;;;4.20;1.70;;;26.60;97.80;;;;;;5102605;27;20031;-65
2023/07/15 11:18:24;;;;;;;6.20;1.80;;;26.60;97.50;;;;;;5081698;27;20316;-68
2023/07/15 11:20:52;;;;;;;6.32;1.77;;;26.60;97.40;;;;;;5086206;28;20126;-65
2023/07/15 11:23:18;;;;;;;6.05;1.60;;;26.60;97.20;;;;;;5092608;28;20103;-66
2023/07/15 11:25:45;;;;;;;5.22;1.70;;;26.60;97.30;;;;;;5106040;27;20158;-68
2023/07/15 11:28:11;;;;;;;5.03;1.50;;;26.60;97.30;;;;;;5085797;27;20108;-63
2023/07/15 11:30:38;;;;;;;4.60;1.60;;;26.60;96.90;;;;;;5078768;27;20230;-68
2023/07/15 11:33:08;;;;;;;7.18;1.73;;;26.50;97.10;;;;;;5106498;27;20046;-64
2023/07/15 11:35:36;;;;;;;4.80;1.50;;;26.40;97.10;;;;;;5075596;28;20089;-66
2023/07/15 11:38:11;;;;;;;4.00;1.38;;;26.30;97.30;;;;;;5118571;27;20052;-69
2023/07/15 11:40:52;;;;;;;6.53;1.67;;;26.20;97.10;;;;;;5115106;27;20464;-68
2023/07/15 11:43:20;;;;;;;5.03;1.58;;;26.20;97.20;;;;;;5124903;27;20254;-65
2023/07/15 11:45:46;;;;;;;5.90;1.83;;;26.20;97.30;;;;;;5102327;28;20039;-66
2023/07/15 11:48:18;;;;;;;3.92;1.52;;;26.10;97.20;;;;;;5099309;28;20054;-66
2023/07/15 11:50:43;;;;;;;5.88;1.70;;;26.10;97.40;;;;;;5117230;27;20118;-67
2023/07/15 11:53:26;;;;;;;6.65;1.50;;;26.00;97.30;;;;;;5112831;27;20127;-66
2023/07/15 11:55:51;;;;;;;5.90;1.73;;;26.00;97.40;;;;;;5092790;28;20044;-65
2023/07/15 11:58:45;;;;;;;7.35;1.70;;;25.90;97.40;;;;;;5086132;28;20043;-65
2023/07/15 12:01:14;;;;;;;5.03;1.73;;;25.90;97.30;;;;;;5097428;28;20512;-68
2023/07/15 12:03:40;;;;;;;4.43;1.85;;;25.80;97.50;;;;;;5101179;28;20429;-66
2023/07/15 12:06:23;;;;;;;5.35;1.75;;;25.70;97.80;;;;;;5117028;28;20035;-65
2023/07/15 12:09:14;;;;;;;6.97;1.90;;;25.70;98.00;;;;;;5105012;28;20060;-68
2023/07/15 12:11:41;;;;;;;4.93;1.70;;;25.70;98.10;;;;;;5094150;28;20076;-64
2023/07/15 12:14:07;;;;;;;5.72;1.83;;;25.70;98.30;;;;;;5086435;28;20058;-67
2023/07/15 12:16:35;;;;;;;6.60;1.85;;;25.80;98.40;;;;;;5123746;28;20582;-65
2023/07/15 12:19:02;;;;;;;8.68;2.03;;;25.80;98.40;;;;;;5105292;28;20130;-63
2023/07/15 12:21:28;;;;;;;6.85;1.90;;;26.00;98.40;;;;;;5123097;28;20051;-66
2023/07/15 12:23:55;;;;;;;5.88;2.15;;;26.20;98.30;;;;;;5123378;28;20078;-66
2023/07/15 12:26:21;;;;;;;4.57;1.88;;;26.40;98.20;;;;;;5087540;28;20478;-65
2023/07/15 12:28:47;;;;;;;7.22;1.95;;;26.40;98.20;;;;;;5106268;28;20126;-66
2023/07/15 12:31:14;;;;;;;5.65;1.80;;;26.50;98.00;;;;;;5123779;28;20063;-67
2023/07/15 12:33:40;;;;;;;7.43;1.77;;;26.60;97.80;;;;;;5124809;28;20054;-69
2023/07/15 12:36:08;;;;;;;6.93;2.05;;;26.60;97.70;;;;;;5105747;28;20736;-68
2023/07/15 12:38:34;;;;;;;5.65;1.88;;;26.60;97.60;;;;;;5089180;28;20391;-67
2023/07/15 12:41:02;;;;;;;7.82;2.42;;;26.70;97.60;;;;;;5104303;28;20125;-67
2023/07/15 12:43:27;;;;;;;5.50;2.00;;;26.80;97.70;;;;;;5106008;28;20202;-66
2023/07/15 12:45:53;;;;;;;5.20;1.70;;;26.90;97.50;;;;;;5106848;28;20100;-63
2023/07/15 12:48:19;;;;;;;4.32;1.85;;;27.10;97.50;;;;;;5106262;28;20337;-62